sensor_id;sensor_type;location;lat;lon;timestamp;pressure;altitude;pressure_sealevel;temperature;humidity
9538;BME280;4807;48.024;11.726;2023-04-01T00:01:25;93770.78;;;7.11;74.02
9538;BME280;4807;48.024;11.726;2023-04-01T00:04:37;93777.94;;;6.91;75.45
9538;BME280;4807;48.024;11.726;2023-04-01T00:07:45;93756.38;;;6.94;75.03
9538;BME280;4807;48.024;11.726;2023-04-01T00:10:54;93766.16;;;6.87;75.62
9538;BME280;4807;48.024;11.726;2023-04-01T00:14:04;93775.50;;;6.83;75.04
9538;BME280;4807;48.024;11.726;2023-04-01T00:17:12;93772.88;;;6.76;75.93
9538;BME280;4807;48.024;11.726;2023-04-01T00:20:23;93770.44;;;6.75;76.04
9538;BME280;4807;48.024;11.726;2023-04-01T00:23:31;93784.47;;;6.82;75.67
9538;BME280;4807;48.024;11.726;2023-04-01T00:26:39;93773.31;;;6.67;76.51
9538;BME280;4807;48.024;11.726;2023-04-01T00:29:49;93768.00;;;6.80;75.79
9538;BME280;4807;48.024;11.726;2023-04-01T00:32:57;93771.66;;;6.79;75.91
9538;BME280;4807;48.024;11.726;2023-04-01T00:36:09;93764.75;;;6.78;75.88
9538;BME280;4807;48.024;11.726;2023-04-01T00:39:18;93757.22;;;6.75;75.50
9538;BME280;4807;48.024;11.726;2023-04-01T00:42:27;93757.03;;;6.63;76.61
9538;BME280;4807;48.024;11.726;2023-04-01T00:45:39;93756.03;;;6.64;76.84
9538;BME280;4807;48.024;11.726;2023-04-01T00:48:52;93750.91;;;6.76;75.60
9538;BME280;4807;48.024;11.726;2023-04-01T00:52:05;93757.41;;;6.73;75.68
9538;BME280;4807;48.024;11.726;2023-04-01T00:55:16;93750.94;;;6.63;76.18
9538;BME280;4807;48.024;11.726;2023-04-01T00:58:31;93749.69;;;6.65;76.08
9538;BME280;4807;48.024;11.726;2023-04-01T01:01:41;93750.50;;;6.79;75.43
9538;BME280;4807;48.024;11.726;2023-04-01T01:04:50;93748.69;;;6.73;75.89
9538;BME280;4807;48.024;11.726;2023-04-01T01:08:09;93743.16;;;6.74;74.93
9538;BME280;4807;48.024;11.726;2023-04-01T01:11:29;93744.00;;;6.75;75.37
9538;BME280;4807;48.024;11.726;2023-04-01T01:15:04;93747.84;;;6.85;74.03
9538;BME280;4807;48.024;11.726;2023-04-01T01:18:23;93754.34;;;6.96;73.33
9538;BME280;4807;48.024;11.726;2023-04-01T01:22:03;93746.63;;;6.88;73.96
9538;BME280;4807;48.024;11.726;2023-04-01T01:25:32;93742.72;;;7.04;73.00
9538;BME280;4807;48.024;11.726;2023-04-01T01:28:52;93750.81;;;7.09;72.72
9538;BME280;4807;48.024;11.726;2023-04-01T01:32:24;93754.06;;;7.17;72.19
9538;BME280;4807;48.024;11.726;2023-04-01T01:35:40;93756.69;;;7.17;72.18
9538;BME280;4807;48.024;11.726;2023-04-01T01:38:57;93758.13;;;7.20;71.67
9538;BME280;4807;48.024;11.726;2023-04-01T01:42:13;93752.44;;;7.16;72.00
9538;BME280;4807;48.024;11.726;2023-04-01T01:45:26;93749.41;;;7.13;72.55
9538;BME280;4807;48.024;11.726;2023-04-01T01:48:36;93752.44;;;7.16;72.70
9538;BME280;4807;48.024;11.726;2023-04-01T01:51:46;93748.75;;;7.17;72.28
9538;BME280;4807;48.024;11.726;2023-04-01T01:54:57;93740.09;;;6.97;73.02
9538;BME280;4807;48.024;11.726;2023-04-01T01:58:18;93747.22;;;6.97;73.71
9538;BME280;4807;48.024;11.726;2023-04-01T02:01:31;93743.75;;;6.96;73.17
9538;BME280;4807;48.024;11.726;2023-04-01T02:04:49;93745.75;;;7.01;73.42
9538;BME280;4807;48.024;11.726;2023-04-01T02:08:07;93750.69;;;6.97;73.78
9538;BME280;4807;48.024;11.726;2023-04-01T02:11:22;93746.97;;;6.98;73.70
9538;BME280;4807;48.024;11.726;2023-04-01T02:14:40;93742.06;;;7.08;72.74
9538;BME280;4807;48.024;11.726;2023-04-01T02:17:50;93751.63;;;7.09;72.73
9538;BME280;4807;48.024;11.726;2023-04-01T02:21:00;93761.66;;;6.94;73.56
9538;BME280;4807;48.024;11.726;2023-04-01T02:24:14;93758.97;;;7.07;71.93
9538;BME280;4807;48.024;11.726;2023-04-01T02:27:24;93771.63;;;7.05;71.96
9538;BME280;4807;48.024;11.726;2023-04-01T02:30:36;93772.03;;;7.02;72.31
9538;BME280;4807;48.024;11.726;2023-04-01T02:33:46;93763.28;;;6.95;72.35
9538;BME280;4807;48.024;11.726;2023-04-01T02:36:56;93757.34;;;7.06;71.15
9538;BME280;4807;48.024;11.726;2023-04-01T02:40:10;93755.31;;;7.08;71.42
9538;BME280;4807;48.024;11.726;2023-04-01T02:43:19;93765.03;;;7.14;71.50
9538;BME280;4807;48.024;11.726;2023-04-01T02:46:28;93767.91;;;7.19;70.60
9538;BME280;4807;48.024;11.726;2023-04-01T02:49:36;93771.97;;;7.15;70.62
9538;BME280;4807;48.024;11.726;2023-04-01T02:52:44;93771.34;;;7.26;69.93
9538;BME280;4807;48.024;11.726;2023-04-01T02:55:54;93759.75;;;7.14;70.29
9538;BME280;4807;48.024;11.726;2023-04-01T02:59:07;93775.03;;;7.19;69.90
9538;BME280;4807;48.024;11.726;2023-04-01T03:02:16;93776.84;;;7.18;70.42
9538;BME280;4807;48.024;11.726;2023-04-01T03:05:25;93783.00;;;7.12;70.50
9538;BME280;4807;48.024;11.726;2023-04-01T03:08:33;93768.34;;;7.03;70.64
9538;BME280;4807;48.024;11.726;2023-04-01T03:11:43;93779.34;;;7.00;70.73
9538;BME280;4807;48.024;11.726;2023-04-01T03:14:51;93767.56;;;6.96;71.51
9538;BME280;4807;48.024;11.726;2023-04-01T03:17:59;93779.19;;;6.75;71.76
9538;BME280;4807;48.024;11.726;2023-04-01T03:21:16;93771.25;;;6.82;71.54
9538;BME280;4807;48.024;11.726;2023-04-01T03:24:25;93784.47;;;6.82;71.31
9538;BME280;4807;48.024;11.726;2023-04-01T03:27:34;93783.88;;;6.73;71.75
9538;BME280;4807;48.024;11.726;2023-04-01T03:30:43;93793.03;;;6.77;71.94
9538;BME280;4807;48.024;11.726;2023-04-01T03:33:52;93787.94;;;6.76;71.62
9538;BME280;4807;48.024;11.726;2023-04-01T03:37:00;93788.53;;;6.84;71.17
9538;BME280;4807;48.024;11.726;2023-04-01T03:40:10;93789.97;;;6.74;71.38
9538;BME280;4807;48.024;11.726;2023-04-01T03:43:19;93797.28;;;6.85;70.73
9538;BME280;4807;48.024;11.726;2023-04-01T03:46:28;93801.38;;;6.74;71.00
9538;BME280;4807;48.024;11.726;2023-04-01T03:49:37;93810.31;;;6.73;71.04
9538;BME280;4807;48.024;11.726;2023-04-01T03:52:45;93801.19;;;6.63;72.07
9538;BME280;4807;48.024;11.726;2023-04-01T03:55:54;93804.44;;;6.51;72.45
9538;BME280;4807;48.024;11.726;2023-04-01T03:59:06;93802.81;;;6.50;72.48
9538;BME280;4807;48.024;11.726;2023-04-01T04:02:15;93801.38;;;6.41;72.90
9538;BME280;4807;48.024;11.726;2023-04-01T04:05:24;93814.00;;;6.46;72.51
9538;BME280;4807;48.024;11.726;2023-04-01T04:08:32;93805.47;;;6.44;73.12
9538;BME280;4807;48.024;11.726;2023-04-01T04:11:40;93811.75;;;6.49;72.28
9538;BME280;4807;48.024;11.726;2023-04-01T04:14:50;93807.47;;;6.42;72.52
9538;BME280;4807;48.024;11.726;2023-04-01T04:17:58;93802.59;;;6.19;73.44
9538;BME280;4807;48.024;11.726;2023-04-01T04:21:11;93802.19;;;6.22;73.62
9538;BME280;4807;48.024;11.726;2023-04-01T04:24:20;93801.78;;;6.25;73.53
9538;BME280;4807;48.024;11.726;2023-04-01T04:27:41;93811.34;;;6.33;73.60
9538;BME280;4807;48.024;11.726;2023-04-01T04:30:53;93809.09;;;6.49;72.77
9538;BME280;4807;48.024;11.726;2023-04-01T04:34:01;93824.19;;;6.56;72.28
9538;BME280;4807;48.024;11.726;2023-04-01T04:37:13;93819.28;;;6.66;71.99
9538;BME280;4807;48.024;11.726;2023-04-01T04:40:22;93808.69;;;6.66;72.26
9538;BME280;4807;48.024;11.726;2023-04-01T04:43:30;93818.69;;;6.64;72.47
9538;BME280;4807;48.024;11.726;2023-04-01T04:46:40;93824.56;;;6.66;72.08
9538;BME280;4807;48.024;11.726;2023-04-01T04:49:53;93811.16;;;6.61;72.50
9538;BME280;4807;48.024;11.726;2023-04-01T04:58:20;93825.38;;;6.66;72.47
9538;BME280;4807;48.024;11.726;2023-04-01T05:01:30;93829.66;;;6.74;72.32
9538;BME280;4807;48.024;11.726;2023-04-01T05:04:40;93816.22;;;6.69;72.42
9538;BME280;4807;48.024;11.726;2023-04-01T05:07:49;93831.09;;;6.70;72.55
9538;BME280;4807;48.024;11.726;2023-04-01T05:10:59;93824.75;;;6.84;71.17
9538;BME280;4807;48.024;11.726;2023-04-01T05:14:13;93829.25;;;6.97;70.77
9538;BME280;4807;48.024;11.726;2023-04-01T05:17:25;93827.81;;;6.94;70.58
9538;BME280;4807;48.024;11.726;2023-04-01T05:20:35;93820.47;;;7.03;70.26
9538;BME280;4807;48.024;11.726;2023-04-01T05:23:43;93831.84;;;7.10;69.36
9538;BME280;4807;48.024;11.726;2023-04-01T05:26:52;93835.72;;;7.20;69.68
9538;BME280;4807;48.024;11.726;2023-04-01T05:30:04;93828.56;;;7.27;69.23
9538;BME280;4807;48.024;11.726;2023-04-01T05:33:36;93823.66;;;7.38;68.34
9538;BME280;4807;48.024;11.726;2023-04-01T05:36:46;93839.09;;;7.41;67.91
9538;BME280;4807;48.024;11.726;2023-04-01T05:39:55;93826.47;;;7.43;68.17
9538;BME280;4807;48.024;11.726;2023-04-01T05:43:06;93831.94;;;7.48;67.87
9538;BME280;4807;48.024;11.726;2023-04-01T05:46:14;93830.13;;;7.48;66.79
9538;BME280;4807;48.024;11.726;2023-04-01T05:49:33;93826.84;;;7.53;67.07
9538;BME280;4807;48.024;11.726;2023-04-01T05:52:44;93827.19;;;7.63;66.79
9538;BME280;4807;48.024;11.726;2023-04-01T05:55:53;93831.44;;;7.71;66.50
9538;BME280;4807;48.024;11.726;2023-04-01T05:59:03;93823.28;;;7.72;66.28
9538;BME280;4807;48.024;11.726;2023-04-01T06:02:12;93816.75;;;7.75;65.87
9538;BME280;4807;48.024;11.726;2023-04-01T06:05:23;93823.59;;;7.95;66.39
9538;BME280;4807;48.024;11.726;2023-04-01T06:08:34;93825.66;;;8.25;64.57
9538;BME280;4807;48.024;11.726;2023-04-01T06:12:13;93813.81;;;8.34;63.82
9538;BME280;4807;48.024;11.726;2023-04-01T06:16:07;93822.78;;;8.33;63.21
9538;BME280;4807;48.024;11.726;2023-04-01T06:19:39;93831.94;;;8.30;63.82
9538;BME280;4807;48.024;11.726;2023-04-01T06:23:25;93835.44;;;8.31;64.08
9538;BME280;4807;48.024;11.726;2023-04-01T06:26:54;93831.84;;;8.19;63.59
9538;BME280;4807;48.024;11.726;2023-04-01T06:30:33;93832.63;;;8.19;63.44
9538;BME280;4807;48.024;11.726;2023-04-01T06:33:58;93830.16;;;8.24;63.30
9538;BME280;4807;48.024;11.726;2023-04-01T06:37:37;93839.09;;;8.30;62.84
9538;BME280;4807;48.024;11.726;2023-04-01T06:41:14;93830.97;;;8.25;62.92
9538;BME280;4807;48.024;11.726;2023-04-01T06:44:43;93836.41;;;8.36;63.14
9538;BME280;4807;48.024;11.726;2023-04-01T06:48:38;93828.00;;;8.96;62.78
9538;BME280;4807;48.024;11.726;2023-04-01T06:52:25;93836.13;;;9.01;60.91
9538;BME280;4807;48.024;11.726;2023-04-01T06:55:59;93829.56;;;9.46;59.41
9538;BME280;4807;48.024;11.726;2023-04-01T06:59:20;93823.59;;;9.99;57.08
9538;BME280;4807;48.024;11.726;2023-04-01T07:02:39;93827.47;;;9.67;58.56
9538;BME280;4807;48.024;11.726;2023-04-01T07:05:49;93837.72;;;9.81;57.47
9538;BME280;4807;48.024;11.726;2023-04-01T07:09:05;93834.19;;;9.87;58.43
9538;BME280;4807;48.024;11.726;2023-04-01T07:12:43;93848.22;;;9.76;57.94
9538;BME280;4807;48.024;11.726;2023-04-01T07:16:19;93848.22;;;9.58;58.97
9538;BME280;4807;48.024;11.726;2023-04-01T07:19:37;93837.34;;;9.41;58.32
9538;BME280;4807;48.024;11.726;2023-04-01T07:22:52;93854.63;;;9.50;58.25
9538;BME280;4807;48.024;11.726;2023-04-01T07:26:15;93839.66;;;9.56;58.31
9538;BME280;4807;48.024;11.726;2023-04-01T07:30:01;93844.00;;;9.69;57.31
9538;BME280;4807;48.024;11.726;2023-04-01T07:33:16;93850.69;;;9.89;58.54
9538;BME280;4807;48.024;11.726;2023-04-01T07:36:37;93846.53;;;9.64;58.07
9538;BME280;4807;48.024;11.726;2023-04-01T07:39:56;93841.78;;;9.66;57.32
9538;BME280;4807;48.024;11.726;2023-04-01T07:43:45;93842.25;;;9.81;57.87
9538;BME280;4807;48.024;11.726;2023-04-01T07:47:41;93836.56;;;10.07;57.48
9538;BME280;4807;48.024;11.726;2023-04-01T07:51:02;93849.16;;;10.00;56.86
9538;BME280;4807;48.024;11.726;2023-04-01T07:54:19;93837.19;;;9.91;57.47
9538;BME280;4807;48.024;11.726;2023-04-01T07:57:38;93838.50;;;10.18;56.49
9538;BME280;4807;48.024;11.726;2023-04-01T08:00:59;93847.53;;;10.17;55.20
9538;BME280;4807;48.024;11.726;2023-04-01T08:04:36;93843.72;;;10.55;54.77
9538;BME280;4807;48.024;11.726;2023-04-01T08:07:58;93856.00;;;11.09;54.80
9538;BME280;4807;48.024;11.726;2023-04-01T08:11:47;93844.72;;;10.84;53.37
9538;BME280;4807;48.024;11.726;2023-04-01T08:15:38;93846.03;;;11.16;54.32
9538;BME280;4807;48.024;11.726;2023-04-01T08:19:09;93846.16;;;11.09;53.67
9538;BME280;4807;48.024;11.726;2023-04-01T08:22:27;93848.69;;;11.28;53.62
9538;BME280;4807;48.024;11.726;2023-04-01T08:25:46;93839.66;;;11.17;53.55
9538;BME280;4807;48.024;11.726;2023-04-01T08:29:04;93842.44;;;11.11;51.98
9538;BME280;4807;48.024;11.726;2023-04-01T08:32:24;93846.59;;;11.06;52.73
9538;BME280;4807;48.024;11.726;2023-04-01T08:35:40;93837.78;;;11.06;53.68
9538;BME280;4807;48.024;11.726;2023-04-01T08:38:57;93822.59;;;10.83;53.47
9538;BME280;4807;48.024;11.726;2023-04-01T08:42:43;93849.94;;;10.90;53.92
9538;BME280;4807;48.024;11.726;2023-04-01T08:46:35;93836.16;;;10.93;53.25
9538;BME280;4807;48.024;11.726;2023-04-01T08:50:30;93810.34;;;10.94;52.93
9538;BME280;4807;48.024;11.726;2023-04-01T08:54:27;93822.88;;;11.17;54.15
9538;BME280;4807;48.024;11.726;2023-04-01T08:57:59;93814.91;;;11.68;50.04
9538;BME280;4807;48.024;11.726;2023-04-01T09:02:10;93814.19;;;12.53;49.54
9538;BME280;4807;48.024;11.726;2023-04-01T09:06:35;93823.59;;;12.27;49.18
9538;BME280;4807;48.024;11.726;2023-04-01T09:14:25;93822.59;;;11.65;50.63
9538;BME280;4807;48.024;11.726;2023-04-01T09:18:32;93824.94;;;11.50;50.15
9538;BME280;4807;48.024;11.726;2023-04-01T09:26:00;93818.56;;;12.14;48.49
9538;BME280;4807;48.024;11.726;2023-04-01T09:29:32;93791.34;;;12.29;47.54
9538;BME280;4807;48.024;11.726;2023-04-01T09:33:11;93817.56;;;12.32;49.42
9538;BME280;4807;48.024;11.726;2023-04-01T09:36:44;93799.69;;;12.32;48.15
9538;BME280;4807;48.024;11.726;2023-04-01T09:40:18;93796.00;;;12.67;47.29
9538;BME280;4807;48.024;11.726;2023-04-01T09:43:57;93797.00;;;12.94;45.66
9538;BME280;4807;48.024;11.726;2023-04-01T09:47:28;93789.63;;;13.18;46.02
9538;BME280;4807;48.024;11.726;2023-04-01T09:50:52;93788.34;;;12.87;46.11
9538;BME280;4807;48.024;11.726;2023-04-01T09:54:27;93787.19;;;12.99;46.86
9538;BME280;4807;48.024;11.726;2023-04-01T09:58:20;93766.78;;;12.93;46.11
9538;BME280;4807;48.024;11.726;2023-04-01T10:06:51;93775.84;;;12.76;46.37
9538;BME280;4807;48.024;11.726;2023-04-01T10:10:47;93787.28;;;12.71;45.84
9538;BME280;4807;48.024;11.726;2023-04-01T10:14:50;93776.88;;;13.42;46.63
9538;BME280;4807;48.024;11.726;2023-04-01T10:18:52;93772.16;;;13.49;44.79
9538;BME280;4807;48.024;11.726;2023-04-01T10:22:35;93766.63;;;13.00;46.00
9538;BME280;4807;48.024;11.726;2023-04-01T10:31:18;93784.28;;;12.84;45.77
9538;BME280;4807;48.024;11.726;2023-04-01T10:43:21;93768.19;;;12.79;44.57
9538;BME280;4807;48.024;11.726;2023-04-01T10:47:17;93771.16;;;12.83;45.27
9538;BME280;4807;48.024;11.726;2023-04-01T10:54:45;93774.25;;;12.75;46.56
9538;BME280;4807;48.024;11.726;2023-04-01T10:58:56;93771.13;;;12.49;47.48
9538;BME280;4807;48.024;11.726;2023-04-01T11:07:41;93783.25;;;12.23;49.20
9538;BME280;4807;48.024;11.726;2023-04-01T11:15:43;93777.00;;;12.18;49.31
9538;BME280;4807;48.024;11.726;2023-04-01T11:19:42;93794.19;;;12.10;50.15
9538;BME280;4807;48.024;11.726;2023-04-01T11:23:33;93794.44;;;11.57;52.97
9538;BME280;4807;48.024;11.726;2023-04-01T11:27:11;93800.88;;;11.84;52.01
9538;BME280;4807;48.024;11.726;2023-04-01T11:30:53;93812.25;;;11.68;51.75
9538;BME280;4807;48.024;11.726;2023-04-01T11:34:30;93809.41;;;11.46;51.79
9538;BME280;4807;48.024;11.726;2023-04-01T11:37:55;93809.84;;;11.43;52.89
9538;BME280;4807;48.024;11.726;2023-04-01T11:41:38;93811.13;;;11.53;52.62
9538;BME280;4807;48.024;11.726;2023-04-01T11:45:26;93813.88;;;11.69;53.62
9538;BME280;4807;48.024;11.726;2023-04-01T11:49:02;93818.56;;;11.39;51.60
9538;BME280;4807;48.024;11.726;2023-04-01T11:53:16;93825.03;;;11.55;53.83
9538;BME280;4807;48.024;11.726;2023-04-01T11:57:02;93826.69;;;11.32;55.53
9538;BME280;4807;48.024;11.726;2023-04-01T12:00:55;93848.78;;;10.86;58.75
9538;BME280;4807;48.024;11.726;2023-04-01T12:04:41;93870.03;;;10.15;63.75
9538;BME280;4807;48.024;11.726;2023-04-01T12:08:06;93872.94;;;10.13;65.15
9538;BME280;4807;48.024;11.726;2023-04-01T12:11:28;93870.41;;;10.00;64.46
9538;BME280;4807;48.024;11.726;2023-04-01T12:14:47;93866.09;;;10.36;64.18
9538;BME280;4807;48.024;11.726;2023-04-01T12:18:14;93866.88;;;10.24;64.04
9538;BME280;4807;48.024;11.726;2023-04-01T12:21:34;93869.50;;;10.06;64.42
9538;BME280;4807;48.024;11.726;2023-04-01T12:24:47;93863.22;;;9.89;62.21
9538;BME280;4807;48.024;11.726;2023-04-01T12:28:10;93864.03;;;9.71;63.15
9538;BME280;4807;48.024;11.726;2023-04-01T12:31:35;93875.50;;;9.65;64.92
9538;BME280;4807;48.024;11.726;2023-04-01T12:35:21;93865.06;;;9.88;64.37
9538;BME280;4807;48.024;11.726;2023-04-01T12:38:47;93880.41;;;9.68;65.98
9538;BME280;4807;48.024;11.726;2023-04-01T12:42:12;93881.13;;;9.39;66.16
9538;BME280;4807;48.024;11.726;2023-04-01T12:45:48;93872.78;;;9.35;66.36
9538;BME280;4807;48.024;11.726;2023-04-01T12:49:22;93872.91;;;9.22;67.40
9538;BME280;4807;48.024;11.726;2023-04-01T12:52:54;93854.03;;;9.30;68.91
9538;BME280;4807;48.024;11.726;2023-04-01T12:56:19;93872.72;;;9.17;68.35
9538;BME280;4807;48.024;11.726;2023-04-01T13:00:10;93865.25;;;9.32;70.46
9538;BME280;4807;48.024;11.726;2023-04-01T13:03:58;93863.66;;;9.25;68.06
9538;BME280;4807;48.024;11.726;2023-04-01T13:11:23;93864.34;;;8.95;69.92
9538;BME280;4807;48.024;11.726;2023-04-01T13:15:17;93871.00;;;9.04;70.23
9538;BME280;4807;48.024;11.726;2023-04-01T13:18:39;93868.03;;;8.94;70.72
9538;BME280;4807;48.024;11.726;2023-04-01T13:21:57;93875.44;;;8.86;70.22
9538;BME280;4807;48.024;11.726;2023-04-01T13:25:23;93869.59;;;8.77;70.46
9538;BME280;4807;48.024;11.726;2023-04-01T13:28:41;93861.63;;;8.77;69.42
9538;BME280;4807;48.024;11.726;2023-04-01T13:32:12;93880.00;;;8.78;70.43
9538;BME280;4807;48.024;11.726;2023-04-01T13:35:38;93869.03;;;8.68;69.91
9538;BME280;4807;48.024;11.726;2023-04-01T13:39:12;93882.22;;;8.57;70.51
9538;BME280;4807;48.024;11.726;2023-04-01T13:42:26;93882.00;;;8.58;70.26
9538;BME280;4807;48.024;11.726;2023-04-01T13:46:04;93888.47;;;8.62;69.72
9538;BME280;4807;48.024;11.726;2023-04-01T13:49:41;93895.63;;;8.62;70.83
9538;BME280;4807;48.024;11.726;2023-04-01T13:53:35;93892.00;;;8.56;71.13
9538;BME280;4807;48.024;11.726;2023-04-01T13:56:57;93889.19;;;8.51;70.62
9538;BME280;4807;48.024;11.726;2023-04-01T14:00:27;93884.88;;;8.57;71.33
9538;BME280;4807;48.024;11.726;2023-04-01T14:04:09;93893.63;;;8.57;71.86
9538;BME280;4807;48.024;11.726;2023-04-01T14:07:58;93881.81;;;8.53;72.20
9538;BME280;4807;48.024;11.726;2023-04-01T14:11:18;93879.81;;;8.49;71.61
9538;BME280;4807;48.024;11.726;2023-04-01T14:14:46;93886.09;;;8.54;71.36
9538;BME280;4807;48.024;11.726;2023-04-01T14:18:55;93878.06;;;8.67;71.25
9538;BME280;4807;48.024;11.726;2023-04-01T14:28:03;93878.72;;;8.88;70.65
9538;BME280;4807;48.024;11.726;2023-04-01T14:31:29;93877.13;;;8.80;71.43
9538;BME280;4807;48.024;11.726;2023-04-01T14:35:02;93883.97;;;8.94;71.27
9538;BME280;4807;48.024;11.726;2023-04-01T14:38:42;93880.94;;;8.91;71.09
9538;BME280;4807;48.024;11.726;2023-04-01T14:42:23;93890.97;;;8.89;70.62
9538;BME280;4807;48.024;11.726;2023-04-01T14:46:01;93887.97;;;9.03;69.56
9538;BME280;4807;48.024;11.726;2023-04-01T14:49:22;93886.69;;;9.12;70.05
9538;BME280;4807;48.024;11.726;2023-04-01T14:52:38;93885.31;;;9.28;70.14
9538;BME280;4807;48.024;11.726;2023-04-01T14:55:51;93893.94;;;9.24;69.57
9538;BME280;4807;48.024;11.726;2023-04-01T14:59:00;93893.69;;;9.25;70.02
9538;BME280;4807;48.024;11.726;2023-04-01T15:02:43;93897.91;;;9.14;69.29
9538;BME280;4807;48.024;11.726;2023-04-01T15:06:09;93896.34;;;9.25;70.58
9538;BME280;4807;48.024;11.726;2023-04-01T15:09:35;93902.72;;;8.99;70.69
9538;BME280;4807;48.024;11.726;2023-04-01T15:12:57;93897.69;;;8.91;71.72
9538;BME280;4807;48.024;11.726;2023-04-01T15:16:23;93896.06;;;9.15;71.36
9538;BME280;4807;48.024;11.726;2023-04-01T15:19:50;93889.66;;;9.23;69.51
9538;BME280;4807;48.024;11.726;2023-04-01T15:23:21;93890.97;;;9.13;69.61
9538;BME280;4807;48.024;11.726;2023-04-01T15:30:28;93893.97;;;9.17;69.74
9538;BME280;4807;48.024;11.726;2023-04-01T15:33:55;93899.06;;;9.18;69.67
9538;BME280;4807;48.024;11.726;2023-04-01T15:37:18;93899.53;;;9.15;69.19
9538;BME280;4807;48.024;11.726;2023-04-01T15:40:38;93903.41;;;9.13;69.09
9538;BME280;4807;48.024;11.726;2023-04-01T15:43:52;93903.22;;;9.33;69.02
9538;BME280;4807;48.024;11.726;2023-04-01T15:47:07;93903.19;;;9.39;67.52
9538;BME280;4807;48.024;11.726;2023-04-01T15:50:46;93911.41;;;9.56;67.51
9538;BME280;4807;48.024;11.726;2023-04-01T15:58:35;93912.38;;;9.62;65.58
9538;BME280;4807;48.024;11.726;2023-04-01T16:02:13;93912.50;;;9.48;65.44
9538;BME280;4807;48.024;11.726;2023-04-01T16:05:44;93911.69;;;9.66;65.29
9538;BME280;4807;48.024;11.726;2023-04-01T16:09:17;93910.31;;;9.64;64.18
9538;BME280;4807;48.024;11.726;2023-04-01T16:12:46;93919.31;;;9.63;64.98
9538;BME280;4807;48.024;11.726;2023-04-01T16:16:08;93918.28;;;9.64;65.71
9538;BME280;4807;48.024;11.726;2023-04-01T16:19:50;93918.69;;;9.42;66.28
9538;BME280;4807;48.024;11.726;2023-04-01T16:23:08;93933.75;;;9.48;67.34
9538;BME280;4807;48.024;11.726;2023-04-01T16:26:28;93920.97;;;9.39;67.55
9538;BME280;4807;48.024;11.726;2023-04-01T16:29:46;93924.44;;;9.14;68.41
9538;BME280;4807;48.024;11.726;2023-04-01T16:33:02;93928.00;;;9.02;68.77
9538;BME280;4807;48.024;11.726;2023-04-01T16:36:26;93923.09;;;9.05;68.95
9538;BME280;4807;48.024;11.726;2023-04-01T16:39:45;93937.00;;;9.01;68.82
9538;BME280;4807;48.024;11.726;2023-04-01T16:43:10;93931.13;;;8.99;69.50
9538;BME280;4807;48.024;11.726;2023-04-01T16:46:39;93928.13;;;8.89;68.66
9538;BME280;4807;48.024;11.726;2023-04-01T16:49:53;93931.63;;;8.83;68.46
9538;BME280;4807;48.024;11.726;2023-04-01T16:53:17;93931.50;;;8.71;67.90
9538;BME280;4807;48.024;11.726;2023-04-01T16:56:38;93934.88;;;8.53;69.14
9538;BME280;4807;48.024;11.726;2023-04-01T16:59:57;93929.22;;;8.43;67.41
9538;BME280;4807;48.024;11.726;2023-04-01T17:03:13;93935.69;;;8.54;65.69
9538;BME280;4807;48.024;11.726;2023-04-01T17:06:39;93936.53;;;8.48;66.00
9538;BME280;4807;48.024;11.726;2023-04-01T17:10:16;93943.44;;;8.55;65.46
9538;BME280;4807;48.024;11.726;2023-04-01T17:13:52;93938.59;;;8.46;65.74
9538;BME280;4807;48.024;11.726;2023-04-01T17:17:35;93943.88;;;8.46;65.92
9538;BME280;4807;48.024;11.726;2023-04-01T17:20:54;93943.44;;;8.55;64.53
9538;BME280;4807;48.024;11.726;2023-04-01T17:24:23;93955.91;;;8.48;64.85
9538;BME280;4807;48.024;11.726;2023-04-01T17:27:47;93952.66;;;8.46;64.07
9538;BME280;4807;48.024;11.726;2023-04-01T17:31:07;93950.81;;;8.47;64.10
9538;BME280;4807;48.024;11.726;2023-04-01T17:34:34;93964.72;;;8.42;64.10
9538;BME280;4807;48.024;11.726;2023-04-01T17:38:03;93963.88;;;8.48;63.99
9538;BME280;4807;48.024;11.726;2023-04-01T17:41:27;93982.84;;;8.45;64.33
9538;BME280;4807;48.024;11.726;2023-04-01T17:44:55;93989.63;;;8.41;65.11
9538;BME280;4807;48.024;11.726;2023-04-01T17:48:24;93970.66;;;8.37;65.19
9538;BME280;4807;48.024;11.726;2023-04-01T17:51:40;93959.44;;;8.29;65.82
9538;BME280;4807;48.024;11.726;2023-04-01T17:55:15;93972.13;;;8.27;65.64
9538;BME280;4807;48.024;11.726;2023-04-01T17:58:34;93971.31;;;8.26;66.04
9538;BME280;4807;48.024;11.726;2023-04-01T18:01:58;93979.63;;;8.30;64.98
9538;BME280;4807;48.024;11.726;2023-04-01T18:05:31;93974.13;;;8.38;63.49
9538;BME280;4807;48.024;11.726;2023-04-01T18:08:57;93986.38;;;8.39;64.16
9538;BME280;4807;48.024;11.726;2023-04-01T18:12:17;93977.59;;;8.38;64.36
9538;BME280;4807;48.024;11.726;2023-04-01T18:15:36;93984.72;;;8.38;63.92
9538;BME280;4807;48.024;11.726;2023-04-01T18:19:01;93994.31;;;8.39;63.55
9538;BME280;4807;48.024;11.726;2023-04-01T18:22:21;93994.06;;;8.47;63.60
9538;BME280;4807;48.024;11.726;2023-04-01T18:25:35;94005.91;;;8.45;63.15
9538;BME280;4807;48.024;11.726;2023-04-01T18:28:53;94010.84;;;8.41;64.73
9538;BME280;4807;48.024;11.726;2023-04-01T18:32:27;94020.22;;;8.37;65.75
9538;BME280;4807;48.024;11.726;2023-04-01T18:35:50;94013.72;;;8.33;65.13
9538;BME280;4807;48.024;11.726;2023-04-01T18:39:08;94025.16;;;8.27;65.98
9538;BME280;4807;48.024;11.726;2023-04-01T18:42:31;94033.72;;;8.22;66.87
9538;BME280;4807;48.024;11.726;2023-04-01T18:45:50;94035.75;;;8.33;66.25
9538;BME280;4807;48.024;11.726;2023-04-01T18:49:13;94033.50;;;8.30;66.58
9538;BME280;4807;48.024;11.726;2023-04-01T18:52:32;94034.53;;;8.23;67.71
9538;BME280;4807;48.024;11.726;2023-04-01T18:55:49;94054.13;;;8.22;68.48
9538;BME280;4807;48.024;11.726;2023-04-01T18:59:06;94040.69;;;8.10;68.67
9538;BME280;4807;48.024;11.726;2023-04-01T19:02:28;94047.19;;;8.21;67.97
9538;BME280;4807;48.024;11.726;2023-04-01T19:05:42;94051.28;;;8.17;68.27
9538;BME280;4807;48.024;11.726;2023-04-01T19:08:53;94050.28;;;8.04;68.99
9538;BME280;4807;48.024;11.726;2023-04-01T19:12:35;94040.91;;;7.95;69.49
9538;BME280;4807;48.024;11.726;2023-04-01T19:15:58;94045.19;;;7.96;68.98
9538;BME280;4807;48.024;11.726;2023-04-01T19:19:22;94045.81;;;7.98;68.67
9538;BME280;4807;48.024;11.726;2023-04-01T19:22:51;94045.41;;;7.88;69.51
9538;BME280;4807;48.024;11.726;2023-04-01T19:26:11;94042.38;;;7.85;69.29
9538;BME280;4807;48.024;11.726;2023-04-01T19:29:36;94047.66;;;7.72;68.99
9538;BME280;4807;48.024;11.726;2023-04-01T19:33:00;94037.69;;;7.74;69.57